Time;durP1;ratioP1;P1;durP2;ratioP2;P2;SDS_P1;SDS_P2;PMS_P1;PMS_P2;Temp;Humidity;BMP_temperature;BMP_pressure;BME280_temperature;BME280_humidity;BME280_pressure;Samples;Min_cycle;Max_cycle;Signal;HPM_P1;HPM_P2
2021/10/31 00:01:28;;;;;;;;;;;19.10;82.00;;;;;;4247522;27;20375;-64
2021/10/31 00:03:32;;;;;;;;;;;19.20;82.20;;;;;;4249577;27;19980;-65
2021/10/31 00:05:35;;;;;;;;;;;19.20;82.10;;;;;;4256318;27;20442;-65
2021/10/31 00:07:38;;;;;;;;;;;19.10;82.10;;;;;;4246477;27;20325;-65
2021/10/31 00:09:40;;;;;;;;;;;19.20;82.00;;;;;;4257897;27;19941;-64
2021/10/31 00:11:43;;;;;;;;;;;19.20;82.10;;;;;;4247588;27;19981;-64
2021/10/31 00:13:46;;;;;;;;;;;19.10;82.00;;;;;;4258273;27;20317;-64
2021/10/31 00:15:48;;;;;;;;;;;19.10;82.10;;;;;;4257074;27;19923;-64
2021/10/31 00:17:51;;;;;;;;;;;19.10;81.90;;;;;;4228595;28;19920;-63
2021/10/31 00:19:55;;;;;;;;;;;19.10;82.00;;;;;;4256279;27;20557;-64
2021/10/31 00:21:58;;;;;;;;;;;19.10;81.90;;;;;;4262953;27;19919;-64
2021/10/31 00:24:01;;;;;;;;;;;19.10;82.00;;;;;;4259231;27;20012;-64
2021/10/31 00:26:03;;;;;;;;;;;19.10;82.00;;;;;;4252007;27;19919;-64
2021/10/31 00:28:06;;;;;;;;;;;19.10;81.90;;;;;;4263513;27;19919;-63
2021/10/31 00:30:09;;;;;;;;;;;19.10;81.90;;;;;;4253802;27;19971;-64
2021/10/31 00:32:12;;;;;;;;;;;19.10;82.00;;;;;;4260527;27;19923;-64
2021/10/31 00:34:14;;;;;;;;;;;19.10;82.10;;;;;;4261541;27;19919;-65
2021/10/31 00:36:18;;;;;;;;;;;19.10;82.00;;;;;;4251821;27;19919;-66
2021/10/31 00:38:21;;;;;;;;;;;19.10;82.00;;;;;;4258188;27;20062;-64
2021/10/31 00:40:24;;;;;;;;;;;19.10;81.90;;;;;;4259063;27;20431;-64
2021/10/31 00:42:26;;;;;;;;;;;19.10;82.00;;;;;;4250291;27;19919;-64
2021/10/31 00:44:29;;;;;;;;;;;19.10;81.90;;;;;;4247444;27;19935;-64
2021/10/31 00:46:32;;;;;;;;;;;19.00;81.90;;;;;;4257989;27;19919;-64
2021/10/31 00:48:34;;;;;;;;;;;19.00;81.90;;;;;;4246061;28;20340;-63
2021/10/31 00:50:38;;;;;;;;;;;19.00;81.90;;;;;;4253737;27;19963;-66
2021/10/31 00:52:42;;;;;;;;;;;19.00;81.90;;;;;;4250974;27;19919;-64
2021/10/31 00:54:45;;;;;;;;;;;19.00;82.00;;;;;;4247453;27;19927;-64
2021/10/31 00:56:48;;;;;;;;;;;19.00;81.90;;;;;;4257463;27;19919;-64
2021/10/31 00:58:50;;;;;;;;;;;19.00;81.90;;;;;;4246135;28;20317;-64
2021/10/31 01:00:53;;;;;;;;;;;19.00;81.90;;;;;;4252924;27;19922;-64
2021/10/31 01:02:56;;;;;;;;;;;19.00;82.00;;;;;;4251542;27;19919;-65
2021/10/31 01:05:01;;;;;;;;;;;19.00;81.90;;;;;;4247401;27;19919;-63
2021/10/31 01:07:20;;;;;;;;;;;19.00;81.90;;;;;;4257298;27;19919;-66
2021/10/31 01:09:29;;;;;;;;;;;19.00;81.90;;;;;;4245762;28;19919;-65
2021/10/31 01:11:42;;;;;;;;;;;19.00;82.00;;;;;;4255241;27;20420;-64
2021/10/31 01:13:53;;;;;;;;;;;19.00;82.00;;;;;;4262172;27;19972;-64
2021/10/31 01:15:59;;;;;;;;;;;18.90;81.90;;;;;;4259836;27;19923;-64
2021/10/31 01:18:10;;;;;;;;;;;19.00;82.00;;;;;;4253687;27;19923;-64
2021/10/31 01:20:15;;;;;;;;;;;18.90;81.90;;;;;;4245687;27;19981;-64
2021/10/31 01:22:26;;;;;;;;;;;19.00;81.90;;;;;;4261931;27;19919;-64
2021/10/31 01:24:52;;;;;;;;;;;19.00;81.90;;;;;;4249222;27;19919;-64
2021/10/31 01:27:11;;;;;;;;;;;19.00;81.90;;;;;;4229138;27;19920;-63
2021/10/31 01:29:21;;;;;;;;;;;18.90;81.80;;;;;;4264058;27;19948;-65
2021/10/31 01:31:27;;;;;;;;;;;18.90;81.80;;;;;;4263507;27;19919;-64
2021/10/31 01:33:37;;;;;;;;;;;19.00;81.80;;;;;;4256406;27;20359;-64
2021/10/31 01:35:49;;;;;;;;;;;18.90;81.80;;;;;;4266147;27;19919;-65
2021/10/31 01:37:56;;;;;;;;;;;18.90;81.80;;;;;;4254440;27;19968;-63
2021/10/31 01:40:04;;;;;;;;;;;18.90;81.90;;;;;;4249121;27;19920;-63
2021/10/31 01:42:16;;;;;;;;;;;18.90;81.70;;;;;;4253177;27;19919;-63
2021/10/31 01:44:24;;;;;;;;;;;18.90;81.80;;;;;;4260528;27;19919;-63
2021/10/31 01:46:33;;;;;;;;;;;18.90;81.80;;;;;;4262718;27;19980;-63
2021/10/31 01:48:42;;;;;;;;;;;18.90;81.70;;;;;;4254125;27;19919;-63
2021/10/31 01:50:46;;;;;;;;;;;18.90;81.80;;;;;;4265801;27;19919;-64
2021/10/31 01:52:53;;;;;;;;;;;18.90;81.70;;;;;;4256887;27;19964;-64
2021/10/31 01:54:57;;;;;;;;;;;18.90;81.70;;;;;;4262506;27;19923;-65
2021/10/31 01:57:01;;;;;;;;;;;18.90;81.80;;;;;;4261692;27;19919;-64
2021/10/31 01:59:06;;;;;;;;;;;18.90;81.70;;;;;;4259758;27;19949;-63
2021/10/31 02:01:11;;;;;;;;;;;18.90;81.60;;;;;;4248297;27;19988;-63
2021/10/31 02:03:16;;;;;;;;;;;18.90;81.70;;;;;;4257854;27;20405;-63
2021/10/31 02:05:21;;;;;;;;;;;18.90;81.70;;;;;;4251270;27;20363;-63
2021/10/31 02:07:24;;;;;;;;;;;18.90;81.70;;;;;;4249770;27;19919;-64
2021/10/31 02:09:29;;;;;;;;;;;18.90;81.80;;;;;;4259930;27;19965;-64
2021/10/31 02:11:33;;;;;;;;;;;18.90;81.70;;;;;;4248319;27;19920;-64
2021/10/31 02:13:36;;;;;;;;;;;18.90;81.70;;;;;;4258646;27;20329;-64
2021/10/31 02:15:41;;;;;;;;;;;18.90;81.70;;;;;;4251006;27;19980;-65
2021/10/31 02:17:45;;;;;;;;;;;18.90;81.70;;;;;;4249588;27;19922;-64
2021/10/31 02:19:47;;;;;;;;;;;18.80;81.70;;;;;;4260841;27;20427;-64
2021/10/31 02:21:52;;;;;;;;;;;18.80;81.60;;;;;;4265338;27;19918;-64
2021/10/31 02:23:57;;;;;;;;;;;18.80;81.60;;;;;;4260830;27;19972;-64
2021/10/31 02:26:00;;;;;;;;;;;18.80;81.50;;;;;;4250981;27;19920;-66
2021/10/31 02:28:03;;;;;;;;;;;18.80;81.50;;;;;;4249242;27;20011;-65
2021/10/31 02:30:06;;;;;;;;;;;18.80;81.50;;;;;;4259455;27;19965;-64
2021/10/31 02:32:08;;;;;;;;;;;18.80;81.40;;;;;;4247777;27;20379;-65
2021/10/31 02:34:11;;;;;;;;;;;18.80;81.50;;;;;;4256316;27;20356;-64
2021/10/31 02:36:14;;;;;;;;;;;18.80;81.60;;;;;;4251916;27;19920;-63
2021/10/31 02:38:17;;;;;;;;;;;18.80;81.40;;;;;;4252506;27;19923;-69
2021/10/31 02:40:22;;;;;;;;;;;18.80;81.50;;;;;;4259805;27;20356;-65
2021/10/31 02:42:25;;;;;;;;;;;18.80;81.60;;;;;;4248110;27;19919;-67
2021/10/31 02:44:27;;;;;;;;;;;18.80;81.50;;;;;;4256111;27;19919;-67
2021/10/31 02:46:30;;;;;;;;;;;18.80;81.50;;;;;;4255011;27;20268;-69
2021/10/31 02:48:34;;;;;;;;;;;18.80;81.70;;;;;;4263352;27;19919;-65
2021/10/31 02:50:38;;;;;;;;;;;18.80;81.50;;;;;;4253519;27;19923;-65
2021/10/31 02:52:53;;;;;;;;;;;18.80;81.40;;;;;;4264904;27;19948;-66
2021/10/31 02:54:59;;;;;;;;;;;18.80;81.40;;;;;;4255180;27;20558;-66
2021/10/31 02:57:06;;;;;;;;;;;18.80;81.50;;;;;;4261992;27;20368;-68
2021/10/31 02:59:14;;;;;;;;;;;18.80;81.50;;;;;;4263226;27;19923;-71
2021/10/31 03:01:18;;;;;;;;;;;18.80;81.40;;;;;;4253888;27;19964;-67
2021/10/31 03:03:21;;;;;;;;;;;18.80;81.40;;;;;;4264758;27;19971;-68
2021/10/31 03:05:24;;;;;;;;;;;18.70;81.40;;;;;;4254358;27;19972;-64
2021/10/31 03:07:27;;;;;;;;;;;18.80;81.40;;;;;;4262352;27;19919;-66
2021/10/31 03:09:30;;;;;;;;;;;18.70;81.40;;;;;;4262895;27;19919;-69
2021/10/31 03:11:32;;;;;;;;;;;18.80;81.30;;;;;;4252928;27;19999;-64
2021/10/31 03:13:36;;;;;;;;;;;18.70;81.20;;;;;;4249721;27;19919;-67
2021/10/31 03:15:39;;;;;;;;;;;18.80;81.30;;;;;;4256886;27;19919;-70
2021/10/31 03:17:42;;;;;;;;;;;18.80;81.30;;;;;;4250408;27;19927;-64
2021/10/31 03:19:45;;;;;;;;;;;18.70;81.30;;;;;;4231118;27;19925;-65
2021/10/31 03:21:47;;;;;;;;;;;18.70;81.30;;;;;;4256320;27;19972;-63
2021/10/31 03:23:50;;;;;;;;;;;18.70;81.30;;;;;;4248045;27;20425;-64
2021/10/31 03:25:53;;;;;;;;;;;18.70;81.30;;;;;;4251328;27;19923;-68
2021/10/31 03:27:55;;;;;;;;;;;18.70;81.30;;;;;;4259944;27;20375;-66
2021/10/31 03:29:59;;;;;;;;;;;18.70;81.20;;;;;;4262534;27;20320;-70
2021/10/31 03:32:02;;;;;;;;;;;18.70;81.30;;;;;;4252616;27;19923;-65
2021/10/31 03:34:05;;;;;;;;;;;18.70;81.20;;;;;;4264211;27;19964;-68
2021/10/31 03:36:08;;;;;;;;;;;18.70;81.30;;;;;;4256189;27;19923;-68
2021/10/31 03:38:10;;;;;;;;;;;18.70;81.20;;;;;;4257416;27;19919;-64
2021/10/31 03:40:13;;;;;;;;;;;18.70;81.20;;;;;;4262516;27;19927;-64
2021/10/31 03:42:16;;;;;;;;;;;18.70;81.20;;;;;;4258356;27;19931;-67
2021/10/31 03:44:20;;;;;;;;;;;18.70;81.20;;;;;;4247123;27;20383;-69
2021/10/31 03:46:24;;;;;;;;;;;18.70;81.20;;;;;;4249943;27;20279;-64
2021/10/31 03:48:27;;;;;;;;;;;18.60;81.20;;;;;;4258838;27;19927;-69
2021/10/31 03:50:31;;;;;;;;;;;18.70;81.10;;;;;;4262594;27;19984;-65
2021/10/31 03:52:34;;;;;;;;;;;18.60;81.10;;;;;;4252222;27;19920;-65
2021/10/31 03:54:36;;;;;;;;;;;18.60;81.20;;;;;;4263999;27;19948;-63
2021/10/31 03:56:39;;;;;;;;;;;18.60;81.10;;;;;;4257692;27;19919;-67
2021/10/31 03:58:42;;;;;;;;;;;18.60;81.10;;;;;;4257523;27;19971;-67
2021/10/31 04:00:45;;;;;;;;;;;18.60;81.10;;;;;;4262969;27;19919;-67
2021/10/31 04:02:49;;;;;;;;;;;18.60;81.10;;;;;;4252282;27;19919;-64
2021/10/31 04:04:52;;;;;;;;;;;18.60;81.10;;;;;;4264118;27;19919;-66
2021/10/31 04:06:55;;;;;;;;;;;18.60;80.90;;;;;;4258407;27;19919;-71
2021/10/31 04:08:57;;;;;;;;;;;18.60;80.90;;;;;;4256899;27;19994;-64
2021/10/31 04:11:00;;;;;;;;;;;18.60;81.00;;;;;;4263509;27;19966;-71
2021/10/31 04:13:04;;;;;;;;;;;18.60;80.90;;;;;;4259937;27;19967;-65
2021/10/31 04:15:07;;;;;;;;;;;18.60;80.80;;;;;;4247021;27;19920;-65
2021/10/31 04:17:09;;;;;;;;;;;18.70;80.90;;;;;;4232387;27;19969;-67
2021/10/31 04:19:13;;;;;;;;;;;18.60;80.80;;;;;;4255407;27;19919;-66
2021/10/31 04:21:16;;;;;;;;;;;18.60;80.80;;;;;;4263243;27;19919;-64
2021/10/31 04:23:19;;;;;;;;;;;18.60;80.80;;;;;;4259254;27;19919;-66
2021/10/31 04:25:22;;;;;;;;;;;18.60;80.80;;;;;;4246569;27;19980;-69
2021/10/31 04:27:24;;;;;;;;;;;18.60;80.90;;;;;;4250224;27;19920;-63
2021/10/31 04:29:27;;;;;;;;;;;18.60;80.80;;;;;;4255408;27;20408;-71
2021/10/31 04:31:30;;;;;;;;;;;18.60;80.80;;;;;;4228039;28;20269;-67
2021/10/31 04:33:34;;;;;;;;;;;18.60;80.80;;;;;;4258229;27;19962;-72
2021/10/31 04:35:38;;;;;;;;;;;18.60;80.80;;;;;;4246301;27;20296;-65
2021/10/31 04:37:44;;;;;;;;;;;18.60;80.80;;;;;;4252679;27;20378;-64
2021/10/31 04:39:48;;;;;;;;;;;18.60;80.80;;;;;;4255584;27;19920;-67
2021/10/31 04:41:52;;;;;;;;;;;18.60;80.80;;;;;;4246403;28;19919;-64
2021/10/31 04:43:55;;;;;;;;;;;18.60;80.80;;;;;;4258755;27;19918;-70
2021/10/31 04:45:57;;;;;;;;;;;18.60;80.80;;;;;;4246803;27;20425;-67
2021/10/31 04:48:00;;;;;;;;;;;18.60;80.80;;;;;;4258265;27;20363;-64
2021/10/31 04:50:03;;;;;;;;;;;18.60;80.80;;;;;;4253937;27;19976;-65
2021/10/31 04:52:07;;;;;;;;;;;18.60;80.80;;;;;;4263392;27;19919;-72
2021/10/31 04:54:10;;;;;;;;;;;18.60;80.70;;;;;;4251854;27;20351;-67
2021/10/31 04:56:12;;;;;;;;;;;18.60;80.80;;;;;;4265126;27;20325;-64
2021/10/31 04:58:15;;;;;;;;;;;18.60;80.80;;;;;;4264939;27;19944;-68
2021/10/31 05:00:18;;;;;;;;;;;18.60;80.70;;;;;;4256590;27;20429;-71
2021/10/31 05:02:21;;;;;;;;;;;18.60;80.80;;;;;;4266932;27;20038;-71
2021/10/31 05:04:24;;;;;;;;;;;18.60;80.80;;;;;;4256123;27;19923;-66
2021/10/31 05:06:27;;;;;;;;;;;18.50;80.70;;;;;;4265114;27;20256;-64
2021/10/31 05:08:31;;;;;;;;;;;18.50;80.70;;;;;;4265403;27;19971;-71
2021/10/31 05:10:33;;;;;;;;;;;18.60;80.60;;;;;;4255958;27;20000;-66
2021/10/31 05:12:36;;;;;;;;;;;18.50;80.60;;;;;;4260364;27;19919;-67
2021/10/31 05:14:39;;;;;;;;;;;18.50;80.60;;;;;;4259662;27;20332;-68
2021/10/31 05:16:42;;;;;;;;;;;18.50;80.70;;;;;;4252517;27;20325;-64
2021/10/31 05:18:44;;;;;;;;;;;18.50;80.70;;;;;;4250863;27;19923;-70
2021/10/31 05:20:47;;;;;;;;;;;18.50;80.70;;;;;;4265300;27;19918;-67
2021/10/31 05:22:50;;;;;;;;;;;18.50;80.70;;;;;;4266981;27;19919;-65
2021/10/31 05:24:54;;;;;;;;;;;18.50;80.70;;;;;;4262137;27;20344;-67
2021/10/31 05:26:56;;;;;;;;;;;18.50;80.80;;;;;;4253243;27;20292;-63
2021/10/31 05:28:59;;;;;;;;;;;18.50;80.70;;;;;;4251074;27;19964;-65
2021/10/31 05:31:01;;;;;;;;;;;18.50;80.80;;;;;;4261243;27;19976;-65
2021/10/31 05:33:05;;;;;;;;;;;18.50;80.80;;;;;;4249773;27;19961;-63
2021/10/31 05:35:09;;;;;;;;;;;18.50;80.80;;;;;;4257516;27;20495;-67
2021/10/31 05:37:12;;;;;;;;;;;18.50;80.80;;;;;;4253487;27;19927;-66
2021/10/31 05:39:15;;;;;;;;;;;18.50;80.80;;;;;;4262517;27;19939;-68
2021/10/31 05:41:19;;;;;;;;;;;18.50;80.80;;;;;;4260683;27;19919;-68
2021/10/31 05:43:22;;;;;;;;;;;18.50;80.80;;;;;;4249083;27;20359;-68
2021/10/31 05:45:24;;;;;;;;;;;18.50;80.80;;;;;;4256306;27;20551;-64
2021/10/31 05:47:27;;;;;;;;;;;18.50;80.80;;;;;;4254623;27;20332;-70
2021/10/31 05:49:30;;;;;;;;;;;18.50;80.80;;;;;;4249917;27;20349;-73
2021/10/31 05:51:32;;;;;;;;;;;18.50;80.80;;;;;;4262929;27;19963;-66
2021/10/31 05:53:35;;;;;;;;;;;18.50;80.70;;;;;;4265963;27;19971;-63
2021/10/31 05:55:38;;;;;;;;;;;18.50;80.80;;;;;;4259131;27;19923;-66
2021/10/31 05:57:42;;;;;;;;;;;18.50;80.80;;;;;;4259526;27;19919;-63
2021/10/31 05:59:45;;;;;;;;;;;18.50;80.80;;;;;;4264620;27;19968;-66
2021/10/31 06:01:47;;;;;;;;;;;18.50;80.80;;;;;;4259942;27;19919;-64
2021/10/31 06:03:50;;;;;;;;;;;18.50;80.80;;;;;;4248571;27;20335;-69
2021/10/31 06:05:53;;;;;;;;;;;18.50;80.80;;;;;;4253506;27;20359;-68
2021/10/31 06:07:56;;;;;;;;;;;18.50;80.80;;;;;;4237450;27;19920;-70
2021/10/31 06:09:59;;;;;;;;;;;18.50;80.80;;;;;;4248827;27;19920;-74
2021/10/31 06:12:03;;;;;;;;;;;18.50;80.80;;;;;;4261132;27;19972;-69
2021/10/31 06:14:07;;;;;;;;;;;18.50;80.80;;;;;;4266069;27;19919;-72
2021/10/31 06:16:10;;;;;;;;;;;18.50;80.90;;;;;;4260381;27;19919;-64
2021/10/31 06:18:14;;;;;;;;;;;18.50;80.90;;;;;;4258448;27;19919;-67
2021/10/31 06:20:17;;;;;;;;;;;18.40;80.90;;;;;;4265142;27;19919;-64
2021/10/31 06:22:19;;;;;;;;;;;18.40;80.80;;;;;;4252818;27;20416;-65
2021/10/31 06:24:22;;;;;;;;;;;18.40;80.90;;;;;;4249107;27;20268;-71
2021/10/31 06:26:25;;;;;;;;;;;18.40;80.80;;;;;;4252526;27;21281;-64
2021/10/31 06:28:27;;;;;;;;;;;18.40;80.80;;;;;;4256841;27;19919;-69
2021/10/31 06:30:31;;;;;;;;;;;18.40;80.80;;;;;;4265566;27;19918;-64
2021/10/31 06:32:34;;;;;;;;;;;18.40;80.80;;;;;;4263478;27;19923;-66
2021/10/31 06:34:37;;;;;;;;;;;18.40;80.90;;;;;;4247935;27;19927;-65
2021/10/31 06:36:39;;;;;;;;;;;18.40;80.90;;;;;;4251912;27;19972;-66
2021/10/31 06:38:42;;;;;;;;;;;18.40;80.80;;;;;;4259920;27;20328;-70
2021/10/31 06:40:45;;;;;;;;;;;18.40;80.90;;;;;;4265116;27;20296;-65
2021/10/31 06:42:47;;;;;;;;;;;18.40;80.90;;;;;;4253527;27;19919;-65
2021/10/31 06:44:50;;;;;;;;;;;18.40;80.90;;;;;;4264232;27;19972;-65
2021/10/31 06:46:54;;;;;;;;;;;18.40;80.80;;;;;;4243252;27;19968;-65
2021/10/31 06:48:56;;;;;;;;;;;18.40;80.90;;;;;;4254747;27;19919;-64
2021/10/31 06:50:59;;;;;;;;;;;18.40;80.90;;;;;;4246931;27;20340;-64
2021/10/31 06:53:02;;;;;;;;;;;18.40;81.60;;;;;;4254128;27;19923;-64
2021/10/31 06:55:08;;;;;;;;;;;18.40;81.00;;;;;;4263509;27;20443;-64
2021/10/31 06:57:11;;;;;;;;;;;18.40;81.10;;;;;;4262990;27;19923;-69
2021/10/31 06:59:14;;;;;;;;;;;18.40;80.90;;;;;;4254128;27;19971;-64
2021/10/31 07:01:16;;;;;;;;;;;18.40;80.90;;;;;;4264463;27;19963;-69
2021/10/31 07:03:20;;;;;;;;;;;18.40;80.90;;;;;;4254333;27;19923;-69
2021/10/31 07:05:23;;;;;;;;;;;18.40;81.00;;;;;;4262215;27;19919;-72
2021/10/31 07:07:26;;;;;;;;;;;18.40;80.90;;;;;;4263436;27;19987;-63
2021/10/31 07:09:28;;;;;;;;;;;18.40;81.00;;;;;;4253597;27;19923;-64
2021/10/31 07:11:31;;;;;;;;;;;18.40;81.00;;;;;;4264679;27;19919;-66
2021/10/31 07:13:34;;;;;;;;;;;18.40;80.90;;;;;;4259424;27;19964;-65
2021/10/31 07:15:36;;;;;;;;;;;18.40;81.00;;;;;;4250858;27;20463;-71
2021/10/31 07:17:39;;;;;;;;;;;18.40;81.00;;;;;;4248165;27;19972;-68
2021/10/31 07:19:43;;;;;;;;;;;18.40;81.00;;;;;;4260530;27;19924;-63
2021/10/31 07:21:46;;;;;;;;;;;18.40;81.10;;;;;;4247926;27;19919;-71
2021/10/31 07:23:48;;;;;;;;;;;18.40;81.10;;;;;;4261611;27;19948;-71
2021/10/31 07:25:51;;;;;;;;;;;18.40;81.10;;;;;;4252436;27;19926;-65
2021/10/31 07:27:54;;;;;;;;;;;18.40;81.00;;;;;;4249413;27;19939;-70
2021/10/31 07:29:57;;;;;;;;;;;18.40;81.10;;;;;;4259346;27;19923;-65
2021/10/31 07:32:00;;;;;;;;;;;18.40;80.90;;;;;;4247545;27;19919;-66
2021/10/31 07:34:02;;;;;;;;;;;18.30;81.00;;;;;;4254479;27;19919;-65
2021/10/31 07:36:06;;;;;;;;;;;18.40;81.10;;;;;;4252117;27;19964;-67
2021/10/31 07:38:09;;;;;;;;;;;18.40;81.10;;;;;;4233067;27;19927;-71
2021/10/31 07:40:12;;;;;;;;;;;18.40;81.20;;;;;;4258614;27;20406;-64
2021/10/31 07:42:15;;;;;;;;;;;18.40;81.20;;;;;;4247415;27;20299;-66
2021/10/31 07:44:17;;;;;;;;;;;18.40;81.20;;;;;;4253837;27;20445;-72
2021/10/31 07:46:20;;;;;;;;;;;18.40;81.20;;;;;;4253736;27;19980;-64
2021/10/31 07:48:23;;;;;;;;;;;18.40;81.20;;;;;;4262335;27;19919;-69
2021/10/31 07:50:26;;;;;;;;;;;18.40;81.30;;;;;;4252503;27;19927;-64
2021/10/31 07:52:30;;;;;;;;;;;18.40;81.30;;;;;;4264784;27;20447;-68
2021/10/31 07:54:32;;;;;;;;;;;18.40;81.30;;;;;;4258184;27;19964;-67
2021/10/31 07:56:40;;;;;;;;;;;18.40;81.30;;;;;;4258390;27;20077;-66
2021/10/31 07:58:45;;;;;;;;;;;18.40;81.40;;;;;;4262661;27;19919;-64
2021/10/31 08:00:49;;;;;;;;;;;18.40;81.30;;;;;;4261854;27;19923;-68
2021/10/31 08:02:52;;;;;;;;;;;18.40;81.30;;;;;;4247134;27;19924;-68
2021/10/31 08:04:57;;;;;;;;;;;18.40;81.30;;;;;;4253019;27;19919;-70
2021/10/31 08:07:00;;;;;;;;;;;18.40;81.30;;;;;;4252688;27;19919;-65
2021/10/31 08:09:04;;;;;;;;;;;18.40;81.40;;;;;;4248113;27;19919;-67
2021/10/31 08:11:07;;;;;;;;;;;18.30;81.40;;;;;;4258393;27;19919;-64
2021/10/31 08:13:17;;;;;;;;;;;18.40;81.40;;;;;;4257931;27;19918;-64
2021/10/31 08:15:20;;;;;;;;;;;18.40;81.40;;;;;;4259464;27;19919;-72
2021/10/31 08:17:23;;;;;;;;;;;18.40;81.50;;;;;;4263963;27;19963;-65
2021/10/31 08:19:25;;;;;;;;;;;18.40;81.40;;;;;;4262496;27;20359;-68
2021/10/31 08:21:28;;;;;;;;;;;18.40;81.40;;;;;;4259900;27;19972;-64
2021/10/31 08:23:31;;;;;;;;;;;18.30;81.30;;;;;;4263823;27;19919;-71
2021/10/31 08:25:35;;;;;;;;;;;18.40;81.40;;;;;;4239490;27;20360;-69
2021/10/31 08:27:38;;;;;;;;;;;18.40;81.40;;;;;;4256894;27;19927;-67
2021/10/31 08:29:41;;;;;;;;;;;18.40;81.40;;;;;;4262622;27;19919;-71
2021/10/31 08:31:48;;;;;;;;;;;18.40;81.40;;;;;;4249867;27;19945;-68
2021/10/31 08:33:55;;;;;;;;;;;18.40;81.50;;;;;;4246307;28;19941;-66
2021/10/31 08:35:58;;;;;;;;;;;18.40;81.50;;;;;;4253006;27;19923;-66
2021/10/31 08:38:01;;;;;;;;;;;18.40;81.40;;;;;;4254103;27;19927;-69
2021/10/31 08:40:04;;;;;;;;;;;18.40;81.40;;;;;;4263082;27;19923;-72
2021/10/31 08:42:09;;;;;;;;;;;18.40;81.40;;;;;;4258215;27;19926;-66
2021/10/31 08:44:12;;;;;;;;;;;18.40;81.40;;;;;;4228281;28;19919;-63
2021/10/31 08:46:15;;;;;;;;;;;18.40;81.50;;;;;;4247552;27;19919;-65
2021/10/31 08:48:18;;;;;;;;;;;18.40;81.40;;;;;;4253298;27;19926;-65
2021/10/31 08:50:20;;;;;;;;;;;18.40;81.50;;;;;;4247057;27;20383;-69
2021/10/31 08:52:23;;;;;;;;;;;18.40;81.40;;;;;;4257995;27;20355;-68
2021/10/31 08:54:26;;;;;;;;;;;18.40;81.50;;;;;;4246238;28;19976;-67
2021/10/31 08:56:29;;;;;;;;;;;18.40;81.40;;;;;;4251279;27;19979;-71
2021/10/31 08:58:33;;;;;;;;;;;18.40;81.40;;;;;;4235767;28;20357;-67
2021/10/31 09:00:36;;;;;;;;;;;18.40;81.40;;;;;;4246365;27;19923;-63
2021/10/31 09:02:39;;;;;;;;;;;18.40;81.50;;;;;;4250439;27;19949;-67
2021/10/31 09:04:42;;;;;;;;;;;18.30;81.40;;;;;;4263149;27;20313;-64
2021/10/31 09:06:44;;;;;;;;;;;18.30;81.40;;;;;;4259146;27;19960;-70
2021/10/31 09:08:47;;;;;;;;;;;18.40;81.50;;;;;;4254589;27;19923;-64
2021/10/31 09:10:52;;;;;;;;;;;18.40;81.50;;;;;;4262936;27;20321;-63
2021/10/31 09:12:55;;;;;;;;;;;18.40;81.50;;;;;;4259343;27;20363;-65
2021/10/31 09:14:59;;;;;;;;;;;18.40;81.50;;;;;;4227877;28;19939;-65
2021/10/31 09:17:02;;;;;;;;;;;18.40;81.50;;;;;;4249826;27;19919;-66
2021/10/31 09:19:04;;;;;;;;;;;18.40;81.50;;;;;;4255141;27;19980;-64
2021/10/31 09:21:07;;;;;;;;;;;18.40;81.50;;;;;;4258433;27;20259;-71
2021/10/31 09:23:11;;;;;;;;;;;18.40;81.40;;;;;;4258657;27;20538;-70
2021/10/31 09:25:14;;;;;;;;;;;18.40;81.50;;;;;;4246366;27;19980;-67
2021/10/31 09:27:17;;;;;;;;;;;18.40;81.50;;;;;;4248970;27;19972;-64
2021/10/31 09:29:19;;;;;;;;;;;18.40;81.60;;;;;;4255894;27;20039;-71
2021/10/31 09:31:23;;;;;;;;;;;18.40;81.50;;;;;;4228667;28;19979;-71
2021/10/31 09:33:26;;;;;;;;;;;18.40;81.50;;;;;;4256966;27;19964;-64
2021/10/31 09:35:35;;;;;;;;;;;18.40;81.50;;;;;;4247163;27;19919;-72
2021/10/31 09:37:38;;;;;;;;;;;18.40;81.50;;;;;;4254662;27;19919;-66
2021/10/31 09:39:40;;;;;;;;;;;18.40;81.50;;;;;;4255475;27;19996;-69
2021/10/31 09:41:43;;;;;;;;;;;18.40;81.50;;;;;;4247843;27;19919;-65
2021/10/31 09:43:51;;;;;;;;;;;18.40;81.50;;;;;;4259845;27;19926;-68
2021/10/31 09:45:55;;;;;;;;;;;18.40;81.50;;;;;;4249798;27;19945;-68
2021/10/31 09:48:00;;;;;;;;;;;18.40;81.50;;;;;;4260412;27;19979;-69
2021/10/31 09:50:03;;;;;;;;;;;18.40;81.40;;;;;;4256201;27;19948;-63
2021/10/31 09:52:06;;;;;;;;;;;18.40;81.70;;;;;;4266455;27;19919;-71
2021/10/31 09:54:10;;;;;;;;;;;18.40;81.50;;;;;;4255344;27;19919;-72
2021/10/31 09:56:12;;;;;;;;;;;18.50;81.50;;;;;;4267743;27;19940;-73
2021/10/31 09:58:25;;;;;;;;;;;18.40;81.70;;;;;;4265682;27;19919;-63
2021/10/31 10:00:34;;;;;;;;;;;18.40;81.60;;;;;;4260159;27;19922;-68
2021/10/31 10:05:00;;;;;;;;;;;18.40;82.40;;;;;;4256496;27;19964;-65
2021/10/31 10:07:04;;;;;;;;;;;18.40;81.60;;;;;;4267713;27;20321;-65
2021/10/31 10:09:07;;;;;;;;;;;18.40;81.70;;;;;;4260333;27;19924;-65
2021/10/31 10:11:16;;;;;;;;;;;18.50;81.70;;;;;;4261141;27;19974;-68
2021/10/31 10:13:22;;;;;;;;;;;18.50;81.60;;;;;;4254718;27;19930;-65
2021/10/31 10:15:25;;;;;;;;;;;18.50;81.70;;;;;;4260580;27;19947;-73
2021/10/31 10:17:41;;;;;;;;;;;18.50;81.70;;;;;;4249534;27;19923;-64
2021/10/31 10:19:47;;;;;;;;;;;18.50;81.80;;;;;;4257963;27;20415;-72
2021/10/31 10:21:56;;;;;;;;;;;18.50;82.00;;;;;;4264804;27;19923;-66
2021/10/31 10:24:00;;;;;;;;;;;18.50;81.80;;;;;;4261216;27;19919;-67
2021/10/31 10:26:06;;;;;;;;;;;18.50;81.80;;;;;;4254554;27;19919;-67
2021/10/31 10:28:21;;;;;;;;;;;18.50;81.80;;;;;;4265320;27;19950;-64
2021/10/31 10:30:25;;;;;;;;;;;18.60;82.00;;;;;;4235011;27;19920;-71
2021/10/31 10:32:28;;;;;;;;;;;18.50;81.90;;;;;;4264725;27;19943;-68
2021/10/31 10:34:35;;;;;;;;;;;18.60;81.70;;;;;;4261696;27;19971;-68
2021/10/31 10:36:39;;;;;;;;;;;18.60;81.60;;;;;;4256402;27;19952;-67
2021/10/31 10:38:43;;;;;;;;;;;18.60;81.70;;;;;;4260214;27;19964;-64
2021/10/31 10:40:46;;;;;;;;;;;18.60;81.80;;;;;;4260729;27;20132;-64
2021/10/31 10:42:50;;;;;;;;;;;18.60;81.60;;;;;;4248536;27;20440;-69
2021/10/31 10:44:54;;;;;;;;;;;18.60;81.70;;;;;;4251056;27;20424;-65
2021/10/31 10:46:59;;;;;;;;;;;18.60;81.80;;;;;;4258541;27;19941;-70
2021/10/31 10:49:04;;;;;;;;;;;18.70;81.60;;;;;;4248339;27;19919;-72
2021/10/31 10:51:15;;;;;;;;;;;18.70;81.60;;;;;;4260078;27;19919;-66
2021/10/31 10:53:18;;;;;;;;;;;18.70;81.50;;;;;;4248483;27;19959;-67
2021/10/31 10:55:23;;;;;;;;;;;18.70;81.40;;;;;;4252159;27;19919;-68
2021/10/31 10:57:27;;;;;;;;;;;18.70;81.50;;;;;;4237979;27;20409;-64
2021/10/31 10:59:30;;;;;;;;;;;18.70;81.50;;;;;;4247460;27;19957;-72
2021/10/31 11:01:32;;;;;;;;;;;18.70;82.20;;;;;;4260283;27;20295;-72
2021/10/31 11:03:35;;;;;;;;;;;18.70;82.00;;;;;;4247855;27;19973;-65
2021/10/31 11:05:39;;;;;;;;;;;18.70;82.00;;;;;;4251073;27;19931;-64
2021/10/31 11:07:43;;;;;;;;;;;18.70;81.80;;;;;;4256698;27;19972;-64
2021/10/31 11:09:47;;;;;;;;;;;18.80;82.20;;;;;;4247976;27;19919;-64
2021/10/31 11:11:51;;;;;;;;;;;18.70;82.10;;;;;;4259912;27;19964;-66
2021/10/31 11:13:53;;;;;;;;;;;18.80;82.20;;;;;;4264256;27;19923;-72
2021/10/31 11:15:59;;;;;;;;;;;18.80;82.50;;;;;;4260927;27;20473;-68
2021/10/31 11:18:03;;;;;;;;;;;18.80;83.00;;;;;;4255825;27;20476;-65
2021/10/31 11:20:08;;;;;;;;;;;18.80;83.00;;;;;;4264248;27;19919;-71
2021/10/31 11:22:11;;;;;;;;;;;18.80;83.30;;;;;;4259949;27;19948;-67
2021/10/31 11:24:15;;;;;;;;;;;18.80;83.40;;;;;;4247410;27;19920;-72
2021/10/31 11:26:20;;;;;;;;;;;18.80;83.80;;;;;;4250427;27;19919;-64
2021/10/31 11:28:24;;;;;;;;;;;18.80;82.80;;;;;;4256150;27;19987;-72
2021/10/31 11:30:29;;;;;;;;;;;18.80;83.10;;;;;;4247236;27;19919;-64
2021/10/31 11:32:31;;;;;;;;;;;18.80;83.50;;;;;;4259295;27;19972;-64
2021/10/31 11:34:34;;;;;;;;;;;18.80;83.60;;;;;;4247162;27;20271;-71
2021/10/31 11:36:37;;;;;;;;;;;18.80;83.90;;;;;;4250241;27;19949;-63
2021/10/31 11:38:40;;;;;;;;;;;18.90;83.50;;;;;;4258750;27;19919;-64
2021/10/31 11:40:47;;;;;;;;;;;18.90;83.70;;;;;;4264356;27;19919;-69
2021/10/31 11:42:50;;;;;;;;;;;18.90;84.20;;;;;;4251623;27;19920;-64
2021/10/31 11:44:58;;;;;;;;;;;18.90;84.00;;;;;;4263288;27;20442;-66
2021/10/31 11:47:19;;;;;;;;;;;18.90;83.90;;;;;;4259128;27;20420;-69
2021/10/31 11:49:21;;;;;;;;;;;18.90;84.20;;;;;;4257660;27;19919;-68
2021/10/31 11:51:36;;;;;;;;;;;18.90;83.80;;;;;;4263288;27;19919;-71
2021/10/31 11:53:40;;;;;;;;;;;18.90;83.90;;;;;;4258186;27;20355;-66
2021/10/31 11:55:49;;;;;;;;;;;18.90;83.70;;;;;;4247326;27;20341;-69
2021/10/31 11:57:54;;;;;;;;;;;18.90;83.90;;;;;;4233502;27;19934;-66
2021/10/31 12:00:14;;;;;;;;;;;18.90;83.50;;;;;;4242264;27;20375;-72
2021/10/31 12:02:29;;;;;;;;;;;18.90;83.70;;;;;;4262031;27;20336;-66
2021/10/31 12:04:57;;;;;;;;;;;18.90;84.10;;;;;;4254479;27;19979;-69